Aeroporto :
LOGIN :

Iscrizione | Disclaimer

   EN    FR    IT 

 










Sommario :    VFR   VFR Marginale   IFR   IFR Intensivo   IFR Molto Intensivo
Visibilità : 
Base nubi : 
>= 8 km
>= 3000ft
5 / 8 km
1000 / 3000 ft
1500m / 5 km
500 / 1000 ft
800 / 1500m
200 / 500 ft
< 800m
< 200 ft
Simboli :   Temporali  Nebbia  Neve Forte  Precipitazioni Forti  Vento > 20 kt
SIGMETs :   Varie  Temporali  Ghiacco  Turbolenza  Onda orograficha  Ceneri Vulcaniche







- Altitudine del aeroporto : 194 ft


EBCV - Chièvres

ULTIMO METAR :
  • 222225Z AUTO 12004KT 9999 NCD 11/08 Q1020 BLU

METARs OBSOLETI :
  • 222155Z AUTO VRB02KT 9999 SCT060/// 13/08 Q1020 BLU
  • 222125Z AUTO VRB02KT 9999 BKN053/// 14/08 Q1020 BLU
  • 222055Z AUTO 07003KT 9999 BKN055/// 15/07 Q1020 BLU
  • 222025Z AUTO VRB02KT 9999 BKN056/// 15/08 Q1020 BLU
  • 221955Z AUTO 04004KT 9999 BKN056/// 15/08 Q1020 BLU

TAF TAF EBCV
Valido dal 22 a 19 ore il 23 a 07 ore UTC


221541Z 2219/2307 VRB02KT 9999 BKN060 BKN220
BECMG 2300/2302 16004KT
TEMPO 2302/2306 3000 BR BY EBWM
Nessun NOTAM noto per questo aeroporto.



MetMap, La meteo Aeronautica in un colpo d'occhio ! - Copyright ORBIFLY Dicembre 2007 - Disclaimer

ORBIFLY MET'MAP TEAM :

Programmazione e sviluppo : Alexandra Zaïnal
Concezione e sviluppo : Baudouin d'Aumeries
Co-Programmazione e sviluppo : Marc-Olivier Méhu
Supporto tecnico e logistico : Manuel Goepfert
Aiuto per la traduzione : Arnaldo La Scala

Contatto : metmap@orbifly.com




FONTI E CREDITI :

   NOAA